createdAt,value
2018-01-15T00:01:26.628Z,47.26
2018-01-15T00:03:52.834Z,47.24
2018-01-15T00:06:19.046Z,47.25
2018-01-15T00:08:45.264Z,47.29
2018-01-15T00:11:11.440Z,47.25
2018-01-15T00:13:37.652Z,47.28
2018-01-15T00:16:04.247Z,47.29
2018-01-15T00:18:30.436Z,47.22
2018-01-15T00:20:56.616Z,47.21
2018-01-15T00:23:22.865Z,47.19
2018-01-15T00:25:49.361Z,47.27
2018-01-15T00:28:15.573Z,47.23
2018-01-15T00:30:41.784Z,47.31
2018-01-15T00:33:07.993Z,47.31
2018-01-15T00:35:34.886Z,47.33
2018-01-15T00:38:06.936Z,47.33
2018-01-15T00:40:33.140Z,47.30
2018-01-15T00:42:59.718Z,47.33
2018-01-15T00:45:25.952Z,47.36
2018-01-15T00:47:52.162Z,47.41
2018-01-15T00:50:18.790Z,47.44
2018-01-15T00:52:45.022Z,47.34
2018-01-15T00:55:11.276Z,47.36
2018-01-15T00:57:37.581Z,47.36
2018-01-15T01:00:03.934Z,47.37
2018-01-15T01:02:30.118Z,47.33
2018-01-15T01:04:56.392Z,47.28
2018-01-15T01:07:22.588Z,47.35
2018-01-15T01:09:48.922Z,47.41
2018-01-15T01:12:15.481Z,47.33
2018-01-15T01:14:41.729Z,47.26
2018-01-15T01:17:07.994Z,47.24
2018-01-15T01:19:34.237Z,47.25
2018-01-15T01:22:00.513Z,47.26
2018-01-15T01:24:26.754Z,47.28
2018-01-15T01:26:52.991Z,47.23
2018-01-15T01:29:19.177Z,47.19
2018-01-15T01:31:45.404Z,47.19
2018-01-15T01:34:11.622Z,47.23
2018-01-15T01:36:37.829Z,47.25
2018-01-15T01:39:04.214Z,47.29
2018-01-15T01:41:30.468Z,47.30
2018-01-15T01:43:56.711Z,47.26
2018-01-15T01:46:22.939Z,47.22
2018-01-15T01:48:58.377Z,47.16
2018-01-15T01:51:24.590Z,47.19
2018-01-15T01:53:50.901Z,47.21
2018-01-15T01:56:17.189Z,47.21
2018-01-15T01:58:43.398Z,47.17
2018-01-15T02:01:09.636Z,47.21
2018-01-15T02:03:36.286Z,47.19
2018-01-15T02:06:02.496Z,47.16
2018-01-15T02:08:28.967Z,47.20
2018-01-15T02:10:55.618Z,47.20
2018-01-15T02:13:21.853Z,47.19
2018-01-15T02:15:48.097Z,47.20
2018-01-15T02:18:14.318Z,47.21
2018-01-15T02:20:40.505Z,47.26
2018-01-15T02:23:06.716Z,47.21
2018-01-15T02:25:32.977Z,47.19
2018-01-15T02:27:59.202Z,47.21
2018-01-15T02:30:25.426Z,47.19
2018-01-15T02:32:52.010Z,47.16
2018-01-15T02:35:18.210Z,47.22
2018-01-15T02:37:44.461Z,47.19
2018-01-15T02:40:10.703Z,47.13
2018-01-15T02:42:36.943Z,47.23
2018-01-15T02:45:03.829Z,47.17
2018-01-15T02:47:30.025Z,47.21
2018-01-15T02:49:56.217Z,47.18
2018-01-15T02:52:22.498Z,47.23
2018-01-15T02:54:48.716Z,47.16
2018-01-15T02:57:15.044Z,47.19
2018-01-15T02:59:41.383Z,47.20
2018-01-15T03:02:07.627Z,47.26
2018-01-15T03:04:33.884Z,47.26
2018-01-15T03:07:00.141Z,47.21
2018-01-15T03:09:26.378Z,47.13
2018-01-15T03:11:52.610Z,47.11
2018-01-15T03:14:18.842Z,47.08
2018-01-15T03:16:45.070Z,47.16
2018-01-15T03:19:11.701Z,47.12
2018-01-15T03:21:37.906Z,47.06
2018-01-15T03:24:04.126Z,47.01
2018-01-15T03:26:30.341Z,47.03
2018-01-15T03:28:56.549Z,47.10
2018-01-15T03:31:22.782Z,47.12
2018-01-15T03:33:48.968Z,47.10
2018-01-15T03:36:15.179Z,47.11
2018-01-15T03:38:41.805Z,47.08
2018-01-15T03:41:08.022Z,47.06
2018-01-15T03:43:34.529Z,47.06
2018-01-15T03:46:01.116Z,47.02
2018-01-15T03:48:27.355Z,47.00
2018-01-15T03:50:53.583Z,47.03
2018-01-15T03:53:19.814Z,47.05
2018-01-15T03:55:45.998Z,47.01
2018-01-15T03:58:12.588Z,47.04
2018-01-15T04:00:38.826Z,47.04
2018-01-15T04:03:05.046Z,47.00
2018-01-15T04:05:31.339Z,47.06
2018-01-15T04:07:57.946Z,47.04
2018-01-15T04:10:24.138Z,47.00
2018-01-15T04:12:50.934Z,47.02
2018-01-15T04:15:18.058Z,47.02
2018-01-15T04:17:44.327Z,46.97
2018-01-15T04:20:10.592Z,46.99
2018-01-15T04:22:36.813Z,47.01
2018-01-15T04:25:03.004Z,47.08
2018-01-15T04:27:29.239Z,47.04
2018-01-15T04:29:55.408Z,47.04
2018-01-15T04:32:21.610Z,47.01
2018-01-15T04:34:48.267Z,47.04
2018-01-15T04:37:14.565Z,47.07
2018-01-15T04:39:40.750Z,47.00
2018-01-15T04:42:07.034Z,46.98
2018-01-15T04:44:33.283Z,46.99
2018-01-15T04:46:59.539Z,46.98
2018-01-15T04:49:25.807Z,46.99
2018-01-15T04:51:51.964Z,46.98
2018-01-15T04:54:18.178Z,46.99
2018-01-15T04:56:44.862Z,47.00
2018-01-15T04:59:11.055Z,47.08
2018-01-15T05:01:37.289Z,47.01
2018-01-15T05:04:03.546Z,46.92
2018-01-15T05:06:29.756Z,46.86
2018-01-15T05:08:55.949Z,46.87
2018-01-15T05:11:22.539Z,46.79
2018-01-15T05:13:48.763Z,46.79
2018-01-15T05:16:14.979Z,46.75
2018-01-15T05:18:41.543Z,46.79
2018-01-15T05:21:08.062Z,46.73
2018-01-15T05:23:34.249Z,46.61
2018-01-15T05:26:00.574Z,46.65
2018-01-15T05:28:26.786Z,46.71
2018-01-15T05:30:53.006Z,46.71
2018-01-15T05:33:19.614Z,46.73
2018-01-15T05:35:45.829Z,46.73
2018-01-15T05:38:12.265Z,46.73
2018-01-15T05:40:38.560Z,46.67
2018-01-15T05:43:04.785Z,46.63
2018-01-15T05:45:30.975Z,46.63
2018-01-15T05:47:57.464Z,46.59
2018-01-15T05:50:23.666Z,46.67
2018-01-15T05:52:49.857Z,46.65
2018-01-15T05:55:16.109Z,46.66
2018-01-15T05:57:42.379Z,46.60
2018-01-15T06:00:08.607Z,46.64
2018-01-15T06:02:34.927Z,46.64
2018-01-15T06:05:01.100Z,46.64
2018-01-15T06:07:27.625Z,46.62
2018-01-15T06:09:53.889Z,46.63
2018-01-15T06:12:20.113Z,46.65
2018-01-15T06:14:46.624Z,46.63
2018-01-15T06:17:12.873Z,46.60
2018-01-15T06:19:39.083Z,46.62
2018-01-15T06:22:05.343Z,46.62
2018-01-15T06:24:31.622Z,46.66
2018-01-15T06:26:57.844Z,46.64
2018-01-15T06:29:24.058Z,46.64
2018-01-15T06:31:50.633Z,46.60
2018-01-15T06:34:16.854Z,46.58
2018-01-15T06:36:43.093Z,46.52
2018-01-15T06:39:09.450Z,46.50
2018-01-15T06:41:35.695Z,46.52
2018-01-15T06:44:01.979Z,46.51
2018-01-15T06:46:28.232Z,46.56
2018-01-15T06:48:54.419Z,46.57
2018-01-15T06:51:20.676Z,46.55
2018-01-15T06:53:46.864Z,46.49
2018-01-15T06:56:13.092Z,46.55
2018-01-15T06:58:39.946Z,46.55
2018-01-15T07:01:06.140Z,46.55
2018-01-15T07:03:32.316Z,46.53
2018-01-15T07:05:58.587Z,46.52
2018-01-15T07:08:24.894Z,46.47
2018-01-15T07:10:51.074Z,46.42
2018-01-15T07:13:17.298Z,46.40
2018-01-15T07:15:43.506Z,46.39
2018-01-15T07:18:09.701Z,46.39
2018-01-15T07:20:35.927Z,46.43
2018-01-15T07:23:02.479Z,46.40
2018-01-15T07:25:28.718Z,46.41
2018-01-15T07:27:54.984Z,46.45
2018-01-15T07:30:21.280Z,46.43
2018-01-15T07:32:47.480Z,46.47
2018-01-15T07:35:13.789Z,46.50
2018-01-15T07:37:40.322Z,46.47
2018-01-15T07:40:06.571Z,46.40
2018-01-15T07:42:32.837Z,46.39
2018-01-15T07:44:59.054Z,46.36
2018-01-15T07:47:25.323Z,46.36
2018-01-15T07:49:51.554Z,46.31
2018-01-15T07:54:50.876Z,46.28
2018-01-15T07:57:17.120Z,46.19
2018-01-15T07:59:43.391Z,46.18
2018-01-15T08:02:16.503Z,46.13
2018-01-15T08:04:42.793Z,46.08
2018-01-15T08:07:09.044Z,46.04
2018-01-15T08:09:35.278Z,45.99
2018-01-15T08:12:01.516Z,45.99
2018-01-15T08:14:27.773Z,45.99
2018-01-15T08:16:54.382Z,46.03
2018-01-15T08:19:20.586Z,46.03
2018-01-15T08:21:46.839Z,45.98
2018-01-15T08:24:13.104Z,46.00
2018-01-15T08:26:39.359Z,45.97
2018-01-15T08:29:05.606Z,45.99
2018-01-15T08:31:31.901Z,45.98
2018-01-15T08:33:58.069Z,45.94
2018-01-15T08:36:24.231Z,45.85
2018-01-15T08:38:50.439Z,45.84
2018-01-15T08:41:16.650Z,45.95
2018-01-15T08:43:43.161Z,45.91
2018-01-15T08:46:09.387Z,45.93
2018-01-15T08:48:35.605Z,45.95
2018-01-15T08:51:01.924Z,45.95
2018-01-15T08:53:28.178Z,45.87
2018-01-15T08:55:54.427Z,45.84
2018-01-15T08:58:20.720Z,45.84
2018-01-15T09:00:46.920Z,45.82
2018-01-15T09:03:13.136Z,45.83
2018-01-15T09:05:39.724Z,45.86
2018-01-15T09:08:05.920Z,45.81
2018-01-15T09:10:32.188Z,45.77
2018-01-15T09:12:58.484Z,45.76
2018-01-15T09:15:24.705Z,45.73
2018-01-15T09:17:51.003Z,45.77
2018-01-15T09:20:17.227Z,45.82
2018-01-15T09:22:43.428Z,45.76
2018-01-15T09:25:10.033Z,45.74
2018-01-15T09:27:36.253Z,45.75
2018-01-15T09:30:02.520Z,45.68
2018-01-15T09:32:29.195Z,45.65
2018-01-15T09:34:55.387Z,45.70
2018-01-15T09:37:21.711Z,45.77
2018-01-15T09:39:47.986Z,45.79
2018-01-15T09:42:14.546Z,45.72
2018-01-15T09:44:40.776Z,45.69
2018-01-15T09:47:07.057Z,45.69
2018-01-15T09:49:33.295Z,45.69
2018-01-15T09:51:59.570Z,45.60
2018-01-15T09:54:25.813Z,45.59
2018-01-15T09:56:52.318Z,45.60
2018-01-15T09:59:18.969Z,45.61
2018-01-15T10:01:45.149Z,45.64
2018-01-15T10:04:11.411Z,45.62
2018-01-15T10:06:37.654Z,45.58
2018-01-15T10:09:04.036Z,45.53
2018-01-15T10:11:30.266Z,45.44
2018-01-15T10:13:56.548Z,45.36
2018-01-15T10:16:22.802Z,45.33
2018-01-15T10:18:49.053Z,45.32
2018-01-15T10:21:15.697Z,45.29
2018-01-15T10:23:41.965Z,45.26
2018-01-15T10:26:08.288Z,45.24
2018-01-15T10:28:34.533Z,45.16
2018-01-15T10:31:00.798Z,45.13
2018-01-15T10:33:27.230Z,45.04
2018-01-15T10:35:53.816Z,45.00
2018-01-15T10:38:20.351Z,44.91
2018-01-15T10:40:46.731Z,44.80
2018-01-15T10:43:13.307Z,44.79
2018-01-15T10:45:39.556Z,44.86
2018-01-15T10:48:05.770Z,44.91
2018-01-15T10:50:32.060Z,44.93
2018-01-15T10:52:58.264Z,44.91
2018-01-15T10:55:24.501Z,44.96
2018-01-15T10:57:50.688Z,44.93
2018-01-15T11:00:16.952Z,44.89
2018-01-15T11:02:43.211Z,44.89
2018-01-15T11:05:09.532Z,44.84
2018-01-15T11:07:35.735Z,44.85
2018-01-15T11:10:02.019Z,44.88
2018-01-15T11:12:28.245Z,44.88
2018-01-15T11:14:54.491Z,44.91
2018-01-15T11:17:20.771Z,44.89
2018-01-15T11:19:46.990Z,44.91
2018-01-15T11:22:13.214Z,44.90
2018-01-15T11:24:39.782Z,44.91
2018-01-15T11:27:06.027Z,44.90
2018-01-15T11:29:32.234Z,44.89
2018-01-15T11:31:58.798Z,44.87
2018-01-15T11:34:24.997Z,44.80
2018-01-15T11:36:51.234Z,44.72
2018-01-15T11:39:17.993Z,44.74
2018-01-15T11:41:44.545Z,44.73
2018-01-15T11:44:10.771Z,44.74
2018-01-15T11:46:37.289Z,44.74
2018-01-15T11:49:03.489Z,44.77
2018-01-15T11:51:29.702Z,44.81
2018-01-15T11:53:55.986Z,44.84
2018-01-15T11:56:22.174Z,44.80
2018-01-15T11:58:48.388Z,44.84
2018-01-15T12:01:14.918Z,44.83
2018-01-15T12:03:41.093Z,44.86
2018-01-15T12:06:07.627Z,44.86
2018-01-15T12:08:33.873Z,44.75
2018-01-15T12:11:00.301Z,44.75
2018-01-15T12:13:26.486Z,44.75
2018-01-15T12:15:53.061Z,44.78
2018-01-15T12:18:19.290Z,44.84
2018-01-15T12:20:45.490Z,44.83
2018-01-15T12:23:12.158Z,44.81
2018-01-15T12:25:38.359Z,44.82
2018-01-15T12:28:04.578Z,44.88
2018-01-15T12:30:30.806Z,44.90
2018-01-15T12:32:56.981Z,44.91
2018-01-15T12:35:23.196Z,44.92
2018-01-15T12:37:49.834Z,44.93
2018-01-15T12:40:16.025Z,44.93
2018-01-15T12:42:42.266Z,44.93
2018-01-15T12:45:08.550Z,44.90
2018-01-15T12:47:34.770Z,44.87
2018-01-15T12:50:00.993Z,44.91
2018-01-15T12:52:27.237Z,44.94
2018-01-15T12:54:54.047Z,44.92
2018-01-15T12:57:20.261Z,44.90
2018-01-15T12:59:47.014Z,44.87
2018-01-15T13:02:13.265Z,44.87
2018-01-15T13:04:39.490Z,44.88
2018-01-15T13:07:18.081Z,44.91
2018-01-15T13:09:44.332Z,44.90
2018-01-15T13:12:10.546Z,44.94
2018-01-15T13:14:37.096Z,44.96
2018-01-15T13:17:03.613Z,45.00
2018-01-15T13:19:29.825Z,45.02
2018-01-15T13:21:56.122Z,44.98
2018-01-15T13:24:22.359Z,44.99
2018-01-15T13:26:48.537Z,45.00
2018-01-15T13:29:14.831Z,44.99
2018-01-15T13:31:41.053Z,44.96
2018-01-15T13:34:07.225Z,44.92
2018-01-15T13:36:33.863Z,44.87
2018-01-15T13:39:00.106Z,44.89
2018-01-15T13:41:26.366Z,44.85
2018-01-15T13:43:52.938Z,44.86
2018-01-15T13:46:19.281Z,44.89
2018-01-15T13:48:45.474Z,44.95
2018-01-15T13:51:11.650Z,44.98
2018-01-15T13:53:37.956Z,45.00
2018-01-15T13:56:04.180Z,45.00
2018-01-15T13:58:30.430Z,45.05
2018-01-15T14:00:56.721Z,45.00
2018-01-15T14:03:23.280Z,45.03
2018-01-15T14:05:49.498Z,45.04
2018-01-15T14:08:16.091Z,45.01
2018-01-15T14:10:42.346Z,45.03
2018-01-15T14:13:08.537Z,45.00
2018-01-15T14:15:35.110Z,44.98
2018-01-15T14:18:01.373Z,44.99
2018-01-15T14:20:27.597Z,44.98
2018-01-15T14:22:54.130Z,44.99
2018-01-15T14:25:20.339Z,45.00
2018-01-15T14:27:46.643Z,44.99
2018-01-15T14:30:13.186Z,44.99
2018-01-15T14:32:39.432Z,45.07
2018-01-15T14:35:05.635Z,45.09
2018-01-15T14:37:31.886Z,45.09
2018-01-15T14:39:58.283Z,45.11
2018-01-15T14:42:24.428Z,45.14
2018-01-15T14:44:50.730Z,45.11
2018-01-15T14:47:17.231Z,45.09
2018-01-15T14:49:43.767Z,45.09
2018-01-15T14:52:10.040Z,45.08
2018-01-15T14:54:36.221Z,45.08
2018-01-15T14:57:02.418Z,45.08
2018-01-15T14:59:28.738Z,45.08
2018-01-15T15:01:55.111Z,45.05
2018-01-15T15:04:21.330Z,45.02
2018-01-15T15:06:47.879Z,45.01
2018-01-15T15:09:14.157Z,45.00
2018-01-15T15:11:40.390Z,45.00
2018-01-15T15:14:06.655Z,45.00
2018-01-15T15:16:33.258Z,45.00
2018-01-15T15:18:59.724Z,45.01
2018-01-15T15:21:26.574Z,45.02
2018-01-15T15:23:52.757Z,45.04
2018-01-15T15:26:19.236Z,45.08
2018-01-15T15:28:45.765Z,45.10
2018-01-15T15:31:12.065Z,45.04
2018-01-15T15:33:38.528Z,45.05
2018-01-15T15:36:04.779Z,45.03
2018-01-15T15:38:31.080Z,45.02
2018-01-15T15:40:57.322Z,44.99
2018-01-15T15:43:23.861Z,45.00
2018-01-15T15:45:50.389Z,45.07
2018-01-15T15:48:16.565Z,45.06
2018-01-15T15:50:42.787Z,45.06
2018-01-15T15:53:09.077Z,45.07
2018-01-15T15:55:35.284Z,45.08
2018-01-15T15:58:01.492Z,45.06
2018-01-15T16:00:28.038Z,45.05
2018-01-15T16:02:54.249Z,45.06
2018-01-15T16:05:20.473Z,45.05
2018-01-15T16:07:46.817Z,45.08
2018-01-15T16:10:13.091Z,45.07
2018-01-15T16:12:39.292Z,45.08
2018-01-15T16:15:05.580Z,45.09
2018-01-15T16:17:31.794Z,45.12
2018-01-15T16:19:58.039Z,45.08
2018-01-15T16:22:31.805Z,45.06
2018-01-15T16:24:58.050Z,45.05
2018-01-15T16:27:24.265Z,45.05
2018-01-15T16:29:50.550Z,45.03
2018-01-15T16:32:16.782Z,45.06
2018-01-15T16:34:42.990Z,45.05
2018-01-15T16:37:09.280Z,45.05
2018-01-15T16:39:35.500Z,45.07
2018-01-15T16:42:01.707Z,45.03
2018-01-15T16:44:28.505Z,45.05
2018-01-15T16:46:54.725Z,45.03
2018-01-15T16:49:20.951Z,45.02
2018-01-15T16:51:47.216Z,45.02
2018-01-15T16:54:13.482Z,45.06
2018-01-15T16:56:40.025Z,45.03
2018-01-15T16:59:06.296Z,45.03
2018-01-15T17:01:32.526Z,45.03
2018-01-15T17:03:58.729Z,45.08
2018-01-15T17:06:25.006Z,45.09
2018-01-15T17:08:51.207Z,45.13
2018-01-15T17:11:17.490Z,45.09
2018-01-15T17:13:44.016Z,45.10
2018-01-15T17:16:10.547Z,45.08
2018-01-15T17:18:36.811Z,45.11
2018-01-15T17:21:03.151Z,45.10
2018-01-15T17:23:29.383Z,45.10
2018-01-15T17:25:55.611Z,45.07
2018-01-15T17:28:21.885Z,45.06
2018-01-15T17:30:48.095Z,45.08
2018-01-15T17:33:14.634Z,45.09
2018-01-15T17:35:40.884Z,45.08
2018-01-15T17:38:07.077Z,45.14
2018-01-15T17:40:33.600Z,45.15
2018-01-15T17:42:59.823Z,45.18
2018-01-15T17:45:26.008Z,45.17
2018-01-15T17:47:52.245Z,45.19
2018-01-15T17:50:18.478Z,45.22
2018-01-15T17:52:44.666Z,45.22
2018-01-15T17:55:10.972Z,45.18
2018-01-15T17:57:37.211Z,45.13
2018-01-15T18:00:03.571Z,45.17
2018-01-15T18:02:29.935Z,45.21
2018-01-15T18:04:56.149Z,45.17
2018-01-15T18:07:22.351Z,45.23
2018-01-15T18:09:48.691Z,45.17
2018-01-15T18:12:14.950Z,45.16
2018-01-15T18:14:41.191Z,45.13
2018-01-15T18:17:07.437Z,45.11
2018-01-15T18:19:33.633Z,45.10
2018-01-15T18:22:00.161Z,45.11
2018-01-15T18:24:26.383Z,45.11
2018-01-15T18:26:52.710Z,45.10
2018-01-15T18:29:18.938Z,45.08
2018-01-15T18:31:45.170Z,45.04
2018-01-15T18:34:11.712Z,45.06
2018-01-15T18:36:38.241Z,45.07
2018-01-15T18:39:04.510Z,45.06
2018-01-15T18:41:30.800Z,45.08
2018-01-15T18:43:57.021Z,45.13
2018-01-15T18:46:23.218Z,45.13
2018-01-15T18:48:49.703Z,45.11
2018-01-15T18:51:15.891Z,45.12
2018-01-15T18:53:42.095Z,45.13
2018-01-15T18:56:08.688Z,45.11
2018-01-15T18:58:35.218Z,45.12
2018-01-15T19:01:01.551Z,45.15
2018-01-15T19:03:27.762Z,45.19
2018-01-15T19:05:54.311Z,45.22
2018-01-15T19:08:20.563Z,45.25
2018-01-15T19:10:46.835Z,45.28
2018-01-15T19:13:13.138Z,45.22
2018-01-15T19:15:39.370Z,45.22
2018-01-15T19:18:05.594Z,45.20
2018-01-15T19:20:31.902Z,45.21
2018-01-15T19:22:58.121Z,45.21
2018-01-15T19:25:24.343Z,45.22
2018-01-15T19:27:50.868Z,45.21
2018-01-15T19:30:17.168Z,45.22
2018-01-15T19:32:43.478Z,45.24
2018-01-15T19:38:21.623Z,45.27
2018-01-15T19:40:47.991Z,46.40
2018-01-15T19:43:17.182Z,45.85
2018-01-15T19:45:49.805Z,45.95
2018-01-15T19:48:22.016Z,46.17
2018-01-15T19:50:54.628Z,46.30
2018-01-15T19:53:27.065Z,46.33
2018-01-15T19:55:59.282Z,46.30
2018-01-15T19:58:31.398Z,46.28
2018-01-15T20:01:04.106Z,46.28
2018-01-15T20:03:36.487Z,46.31
2018-01-15T20:06:08.913Z,46.33
2018-01-15T20:08:41.427Z,46.29
2018-01-15T20:11:08.703Z,46.55
2018-01-15T20:13:35.330Z,46.51
2018-01-15T20:16:01.638Z,46.49
2018-01-15T20:18:27.914Z,46.49
2018-01-15T20:20:54.276Z,46.76
2018-01-15T20:23:20.603Z,47.07
2018-01-15T20:25:46.859Z,47.36
2018-01-15T20:28:13.431Z,47.43
2018-01-15T20:30:39.734Z,47.51
2018-01-15T20:33:06.015Z,47.65
2018-01-15T20:35:32.316Z,47.75
2018-01-15T20:37:58.671Z,47.76
2018-01-15T20:40:24.962Z,47.82
2018-01-15T20:42:52.869Z,47.98
2018-01-15T20:45:19.158Z,47.67
2018-01-15T20:47:45.439Z,47.54
2018-01-15T20:50:11.686Z,47.57
2018-01-15T20:52:38.231Z,47.52
2018-01-15T20:55:04.474Z,47.64
2018-01-15T20:57:30.700Z,47.65
2018-01-15T20:59:56.998Z,47.44
2018-01-15T21:02:23.292Z,47.48
2018-01-15T21:04:49.621Z,47.28
2018-01-15T21:07:15.921Z,47.50
2018-01-15T21:09:42.105Z,47.37
2018-01-15T21:12:08.495Z,47.43
2018-01-15T21:14:35.294Z,47.25
2018-01-15T21:17:01.513Z,47.43
2018-01-15T21:19:27.761Z,47.34
2018-01-15T21:21:54.275Z,47.96
2018-01-15T21:24:20.469Z,48.15
2018-01-15T21:26:46.912Z,48.17
2018-01-15T21:29:13.159Z,48.15
2018-01-15T21:31:39.399Z,48.08
2018-01-15T21:34:05.656Z,48.20
2018-01-15T21:36:31.922Z,48.23
2018-01-15T21:38:58.159Z,48.13
2018-01-15T21:41:24.753Z,48.12
2018-01-15T21:43:51.021Z,48.26
2018-01-15T21:46:17.265Z,48.26
2018-01-15T21:48:43.528Z,48.41
2018-01-15T21:51:09.795Z,48.63
2018-01-15T21:53:36.025Z,48.43
2018-01-15T21:56:02.242Z,48.31
2018-01-15T21:58:28.559Z,48.25
2018-01-15T22:00:55.012Z,48.27
2018-01-15T22:03:21.227Z,48.19
2018-01-15T22:05:47.725Z,48.22
2018-01-15T22:08:13.941Z,47.72
2018-01-15T22:10:40.211Z,48.23
2018-01-15T22:13:06.493Z,48.49
2018-01-15T22:15:32.721Z,48.54
2018-01-15T22:17:58.978Z,48.54
2018-01-15T22:20:25.237Z,48.37
2018-01-15T22:22:51.475Z,48.18
2018-01-15T22:25:17.739Z,48.14
2018-01-15T22:27:44.227Z,48.12
2018-01-15T22:30:10.512Z,48.40
2018-01-15T22:32:36.745Z,48.38
2018-01-15T22:35:03.188Z,48.35
2018-01-15T22:37:29.474Z,48.19
2018-01-15T22:39:55.734Z,48.33
2018-01-15T22:42:21.933Z,48.48
2018-01-15T22:44:48.252Z,48.55
2018-01-15T22:47:14.475Z,48.55
2018-01-15T22:49:40.694Z,48.51
2018-01-15T22:52:06.948Z,48.49
2018-01-15T22:54:33.279Z,48.85
2018-01-15T22:56:59.622Z,48.92
2018-01-15T22:59:25.944Z,48.84
2018-01-15T23:01:52.383Z,48.85
2018-01-15T23:04:18.901Z,48.82
2018-01-15T23:06:45.343Z,48.86
2018-01-15T23:09:12.032Z,48.85
2018-01-15T23:11:38.577Z,48.82
2018-01-15T23:14:04.993Z,48.81
2018-01-15T23:16:31.306Z,48.77
2018-01-15T23:18:58.425Z,48.72
2018-01-15T23:21:24.661Z,48.71
2018-01-15T23:23:51.122Z,48.72
2018-01-15T23:26:17.418Z,49.06
2018-01-15T23:28:43.768Z,49.05
2018-01-15T23:31:11.535Z,48.85
2018-01-15T23:33:37.902Z,48.79
2018-01-15T23:36:04.296Z,48.82
2018-01-15T23:38:30.679Z,48.74
2018-01-15T23:40:57.027Z,48.70
2018-01-15T23:43:23.304Z,48.87
2018-01-15T23:45:49.566Z,49.18
2018-01-15T23:48:15.772Z,48.95
2018-01-15T23:50:42.043Z,48.90
2018-01-15T23:53:08.541Z,48.81
2018-01-15T23:55:34.738Z,48.78
2018-01-15T23:58:00.986Z,48.77
